createdAt,value
2019-04-25T00:00:43.103Z,9.90
2019-04-25T00:03:13.998Z,9.90
2019-04-25T00:05:44.749Z,9.90
2019-04-25T00:08:15.365Z,9.90
2019-04-25T00:10:46.098Z,10.00
2019-04-25T00:13:16.635Z,9.90
2019-04-25T00:15:47.124Z,9.80
2019-04-25T00:18:17.738Z,9.80
2019-04-25T00:20:52.623Z,9.70
2019-04-25T00:23:23.258Z,9.70
2019-04-25T00:26:11.599Z,9.60
2019-04-25T00:28:43.618Z,9.60
2019-04-25T00:31:15.321Z,9.60
2019-04-25T00:33:46.046Z,9.60
2019-04-25T00:36:16.629Z,9.60
2019-04-25T00:38:48.293Z,9.60
2019-04-25T00:41:19.270Z,9.50
2019-04-25T00:43:51.412Z,9.40
2019-04-25T00:46:22.535Z,9.40
2019-04-25T00:48:53.110Z,9.40
2019-04-25T00:51:23.548Z,9.40
2019-04-25T00:53:54.819Z,9.40
2019-04-25T00:56:25.326Z,9.40
2019-04-25T00:59:22.167Z,9.30
2019-04-25T01:02:14.512Z,9.40
2019-04-25T01:04:45.222Z,9.40
2019-04-25T01:07:16.597Z,9.50
2019-04-25T01:09:47.708Z,9.40
2019-04-25T01:12:18.573Z,9.40
2019-04-25T01:14:49.001Z,9.40
2019-04-25T01:17:21.170Z,9.40
2019-04-25T01:19:54.727Z,9.30
2019-04-25T01:22:24.483Z,9.30
2019-04-25T01:24:55.786Z,9.20
2019-04-25T01:27:26.571Z,9.20
2019-04-25T01:29:57.366Z,9.20
2019-04-25T01:32:36.523Z,9.10
2019-04-25T01:35:27.236Z,9.10
2019-04-25T01:38:35.243Z,9.10
2019-04-25T01:41:34.109Z,9.00
2019-04-25T01:44:14.323Z,9.00
2019-04-25T01:46:45.025Z,9.00
2019-04-25T01:49:15.454Z,9.00
2019-04-25T01:51:45.873Z,9.00
2019-04-25T01:54:16.306Z,9.00
2019-04-25T01:56:46.735Z,8.90
2019-04-25T01:59:18.188Z,9.00
2019-04-25T02:01:48.713Z,9.00
2019-04-25T02:04:39.416Z,9.10
2019-04-25T02:07:09.931Z,9.10
2019-04-25T02:09:40.427Z,9.10
2019-04-25T02:12:20.320Z,9.10
2019-04-25T02:14:51.942Z,9.10
2019-04-25T02:17:24.122Z,9.00
2019-04-25T02:19:56.613Z,9.00
2019-04-25T02:22:27.170Z,9.00
2019-04-25T02:24:58.288Z,9.00
2019-04-25T02:27:28.877Z,9.10
2019-04-25T02:29:59.353Z,9.00
2019-04-25T02:33:27.220Z,9.00
2019-04-25T02:35:59.468Z,9.00
2019-04-25T02:38:29.927Z,9.00
2019-04-25T02:41:03.226Z,9.00
2019-04-25T02:43:35.102Z,9.00
2019-04-25T02:46:28.447Z,9.00
2019-04-25T02:49:29.270Z,9.00
2019-04-25T02:52:13.150Z,9.00
2019-04-25T02:54:44.769Z,9.00
2019-04-25T02:57:14.724Z,9.00
2019-04-25T02:59:45.314Z,8.90
2019-04-25T03:02:17.393Z,8.90
2019-04-25T03:04:48.003Z,9.00
2019-04-25T03:07:18.618Z,9.00
2019-04-25T03:09:49.133Z,9.00
2019-04-25T03:12:32.491Z,9.10
2019-04-25T03:14:51.827Z,9.10
2019-04-25T03:17:24.403Z,9.00
2019-04-25T03:20:14.610Z,9.00
2019-04-25T03:23:20.920Z,8.90
2019-04-25T03:25:51.512Z,9.00
2019-04-25T03:28:23.805Z,9.00
2019-04-25T03:30:54.981Z,9.00
2019-04-25T03:33:26.419Z,9.00
2019-04-25T03:35:57.046Z,8.90
2019-04-25T03:38:27.577Z,8.90
2019-04-25T03:40:58.209Z,8.90
2019-04-25T03:43:28.626Z,8.80
2019-04-25T03:45:59.062Z,8.80
2019-04-25T03:48:29.478Z,8.70
2019-04-25T03:50:59.917Z,8.70
2019-04-25T03:53:30.450Z,8.70
2019-04-25T03:56:00.875Z,8.70
2019-04-25T03:58:31.301Z,8.70
2019-04-25T04:01:03.897Z,8.70
2019-04-25T04:03:33.988Z,8.80
2019-04-25T04:06:06.326Z,8.70
2019-04-25T04:08:36.698Z,8.70
2019-04-25T04:11:07.771Z,8.70
2019-04-25T04:13:39.394Z,8.60
2019-04-25T04:16:10.519Z,8.50
2019-04-25T04:18:44.398Z,8.50
2019-04-25T04:21:36.891Z,8.50
2019-04-25T04:24:26.364Z,8.40
2019-04-25T04:27:15.564Z,8.40
2019-04-25T04:29:46.378Z,8.40
2019-04-25T04:32:17.358Z,8.40
2019-04-25T04:34:47.833Z,8.40
2019-04-25T04:37:18.259Z,8.40
2019-04-25T04:39:49.813Z,8.30
2019-04-25T04:42:21.150Z,8.30
2019-04-25T04:44:53.013Z,8.30
2019-04-25T04:47:23.783Z,8.20
2019-04-25T04:49:55.217Z,8.20
2019-04-25T04:52:26.663Z,8.20
2019-04-25T04:55:05.163Z,8.20
2019-04-25T04:57:35.629Z,8.20
2019-04-25T05:00:01.322Z,8.30
2019-04-25T05:02:50.883Z,8.30
2019-04-25T05:05:49.483Z,8.30
2019-04-25T05:08:38.750Z,8.30
2019-04-25T05:11:09.176Z,8.20
2019-04-25T05:13:39.798Z,8.20
2019-04-25T05:16:11.178Z,8.10
2019-04-25T05:18:43.766Z,8.10
2019-04-25T05:21:15.729Z,8.10
2019-04-25T05:23:46.329Z,8.10
2019-04-25T05:26:17.167Z,8.20
2019-04-25T05:28:47.741Z,8.20
2019-04-25T05:31:25.528Z,8.20
2019-04-25T05:33:55.614Z,8.20
2019-04-25T05:36:38.022Z,8.20
2019-04-25T05:39:12.230Z,8.30
2019-04-25T05:42:01.614Z,8.30
2019-04-25T05:44:32.138Z,8.40
2019-04-25T05:47:04.117Z,8.50
2019-04-25T05:49:34.737Z,8.50
2019-04-25T05:52:05.516Z,8.60
2019-04-25T05:54:35.999Z,8.70
2019-04-25T05:57:06.531Z,8.70
2019-04-25T05:59:37.251Z,8.80
2019-04-25T06:02:07.696Z,8.90
2019-04-25T06:04:38.117Z,8.90
2019-04-25T06:07:08.544Z,9.00
2019-04-25T06:09:57.916Z,9.10
2019-04-25T06:12:53.634Z,9.20
2019-04-25T06:15:28.022Z,9.30
2019-04-25T06:18:17.732Z,9.40
2019-04-25T06:20:48.465Z,9.40
2019-04-25T06:23:26.664Z,9.50
2019-04-25T06:25:57.489Z,9.50
2019-04-25T06:28:29.647Z,9.60
2019-04-25T06:31:00.107Z,9.60
2019-04-25T06:33:30.554Z,9.70
2019-04-25T06:36:00.951Z,9.70
2019-04-25T06:38:32.008Z,9.80
2019-04-25T06:41:03.644Z,9.80
2019-04-25T06:43:34.597Z,9.90
2019-04-25T06:46:39.129Z,10.00
2019-04-25T06:49:31.375Z,10.20
2019-04-25T06:52:02.199Z,10.60
2019-04-25T06:54:33.541Z,11.10
2019-04-25T06:57:04.896Z,11.50
2019-04-25T06:59:38.544Z,11.90
2019-04-25T07:02:07.485Z,12.10
2019-04-25T07:04:37.918Z,12.30
2019-04-25T07:07:12.426Z,12.80
2019-04-25T07:09:40.555Z,13.30
2019-04-25T07:12:11.042Z,13.70
2019-04-25T07:14:41.484Z,13.90
2019-04-25T07:17:12.002Z,14.20
2019-04-25T07:19:44.093Z,14.20
2019-04-25T07:22:15.540Z,14.20
2019-04-25T07:24:46.049Z,14.40
2019-04-25T07:27:35.373Z,14.50
2019-04-25T07:30:42.111Z,14.30
2019-04-25T07:33:23.340Z,14.80
2019-04-25T07:35:57.105Z,15.40
2019-04-25T07:38:29.107Z,15.60
2019-04-25T07:40:59.749Z,15.60
2019-04-25T07:43:30.203Z,15.80
2019-04-25T07:46:00.630Z,16.00
2019-04-25T07:48:32.084Z,16.20
2019-04-25T07:51:04.396Z,16.60
2019-04-25T07:53:36.046Z,17.40
2019-04-25T07:56:06.807Z,17.60
2019-04-25T07:58:49.147Z,17.00
2019-04-25T08:01:15.228Z,16.20
2019-04-25T08:03:45.817Z,15.60
2019-04-25T08:06:16.342Z,14.90
2019-04-25T08:08:47.988Z,14.60
2019-04-25T08:11:18.519Z,14.50
2019-04-25T08:14:14.443Z,15.00
2019-04-25T08:16:48.865Z,15.20
2019-04-25T08:19:20.112Z,15.60
2019-04-25T08:21:51.051Z,16.70
2019-04-25T08:24:24.004Z,17.40
2019-04-25T08:26:54.633Z,17.90
2019-04-25T08:29:25.615Z,18.30
2019-04-25T08:31:56.239Z,18.00
2019-04-25T08:35:03.835Z,17.90
2019-04-25T08:37:47.782Z,18.90
2019-04-25T08:40:19.964Z,19.50
2019-04-25T08:42:50.478Z,19.20
2019-04-25T08:45:21.075Z,19.50
2019-04-25T08:47:51.543Z,20.20
2019-04-25T08:50:33.209Z,19.90
2019-04-25T08:53:03.890Z,18.80
2019-04-25T08:55:59.272Z,19.30
2019-04-25T08:58:48.584Z,19.40
2019-04-25T09:01:41.986Z,18.80
2019-04-25T09:04:25.538Z,18.50
2019-04-25T09:06:56.071Z,18.40
2019-04-25T09:09:26.502Z,18.30
2019-04-25T09:11:56.926Z,18.70
2019-04-25T09:14:27.807Z,19.20
2019-04-25T09:16:58.395Z,19.20
2019-04-25T09:19:28.822Z,19.00
2019-04-25T09:21:59.248Z,20.10
2019-04-25T09:24:29.803Z,19.60
2019-04-25T09:27:20.482Z,18.60
2019-04-25T09:29:51.054Z,18.50
2019-04-25T09:32:21.539Z,17.00
2019-04-25T09:34:52.631Z,16.40
2019-04-25T09:37:24.631Z,15.40
2019-04-25T09:40:06.028Z,14.90
2019-04-25T09:42:36.982Z,14.30
2019-04-25T09:45:26.403Z,14.00
2019-04-25T09:47:59.375Z,13.80
2019-04-25T09:50:37.506Z,14.40
2019-04-25T09:53:21.078Z,15.60
2019-04-25T09:55:51.295Z,16.80
2019-04-25T09:58:44.665Z,19.00
2019-04-25T10:01:15.687Z,20.80
2019-04-25T10:03:47.320Z,21.80
2019-04-25T10:06:20.136Z,22.40
2019-04-25T10:08:50.562Z,23.00
2019-04-25T10:11:23.618Z,23.70
2019-04-25T10:14:20.296Z,24.10
2019-04-25T10:16:50.723Z,22.70
2019-04-25T10:19:21.353Z,21.40
2019-04-25T10:21:53.531Z,21.10
2019-04-25T10:24:24.256Z,21.70
2019-04-25T10:26:55.035Z,22.80
2019-04-25T10:29:25.602Z,23.30
2019-04-25T10:31:56.674Z,22.80
2019-04-25T10:34:27.182Z,23.50
2019-04-25T10:36:57.639Z,22.80
2019-04-25T10:39:28.871Z,21.00
2019-04-25T10:41:59.393Z,18.60
2019-04-25T10:44:29.990Z,16.10
2019-04-25T10:47:00.454Z,14.40
2019-04-25T10:49:30.882Z,13.50
2019-04-25T10:52:01.311Z,13.40
2019-04-25T10:54:31.722Z,13.80
2019-04-25T10:57:02.158Z,14.10
2019-04-25T10:59:32.635Z,15.90
2019-04-25T11:02:04.004Z,17.30
2019-04-25T11:04:44.256Z,15.40
2019-04-25T11:07:15.953Z,13.90
2019-04-25T11:09:47.122Z,12.70
2019-04-25T11:12:19.050Z,11.70
2019-04-25T11:14:49.578Z,11.50
2019-04-25T11:17:20.392Z,12.00
2019-04-25T11:19:51.189Z,13.30
2019-04-25T11:22:21.689Z,14.20
2019-04-25T11:24:53.011Z,13.80
2019-04-25T11:27:23.978Z,13.60
2019-04-25T11:30:08.197Z,15.10
2019-04-25T11:32:28.772Z,17.00
2019-04-25T11:34:59.677Z,19.40
2019-04-25T11:37:31.850Z,20.00
2019-04-25T11:40:11.120Z,21.00
2019-04-25T11:42:41.878Z,21.40
2019-04-25T11:45:14.353Z,22.40
2019-04-25T11:47:46.218Z,21.50
2019-04-25T11:50:18.095Z,22.50
2019-04-25T11:52:48.588Z,24.40
2019-04-25T11:55:19.951Z,23.20
2019-04-25T11:57:51.381Z,22.30
2019-04-25T12:00:27.738Z,21.60
2019-04-25T12:02:58.219Z,21.00
2019-04-25T12:05:29.368Z,20.40
2019-04-25T12:07:59.892Z,20.20
2019-04-25T12:10:31.315Z,19.70
2019-04-25T12:13:01.813Z,19.50
2019-04-25T12:15:33.358Z,19.90
2019-04-25T12:18:04.655Z,19.30
2019-04-25T12:20:35.203Z,18.30
2019-04-25T12:23:10.224Z,17.40
2019-04-25T12:25:38.000Z,16.10
2019-04-25T12:28:08.450Z,15.60
2019-04-25T12:30:40.467Z,16.00
2019-04-25T12:33:20.719Z,17.30
2019-04-25T12:35:43.804Z,19.40
2019-04-25T12:38:14.334Z,21.60
2019-04-25T12:40:46.145Z,22.80
2019-04-25T12:43:17.431Z,24.30
2019-04-25T12:45:54.320Z,23.20
2019-04-25T12:48:24.850Z,21.30
2019-04-25T12:50:56.713Z,20.40
2019-04-25T12:53:27.236Z,21.30
2019-04-25T12:55:57.765Z,22.00
2019-04-25T12:58:28.182Z,23.20
2019-04-25T13:01:00.065Z,24.30
2019-04-25T13:03:30.731Z,24.00
2019-04-25T13:06:01.214Z,22.60
2019-04-25T13:08:31.645Z,22.50
2019-04-25T13:11:07.910Z,23.30
2019-04-25T13:13:34.134Z,23.50
2019-04-25T13:16:05.279Z,23.90
2019-04-25T13:18:35.705Z,24.30
2019-04-25T13:21:06.125Z,22.20
2019-04-25T13:23:36.560Z,21.40
2019-04-25T13:26:08.580Z,20.00
2019-04-25T13:28:51.196Z,18.80
2019-04-25T13:31:35.182Z,18.10
2019-04-25T13:34:14.083Z,18.50
2019-04-25T13:36:44.638Z,20.00
2019-04-25T13:39:19.060Z,20.30
2019-04-25T13:41:49.486Z,21.90
2019-04-25T13:44:19.912Z,24.40
2019-04-25T13:46:50.542Z,24.80
2019-04-25T13:49:20.959Z,22.90
2019-04-25T13:51:51.397Z,20.00
2019-04-25T13:54:23.431Z,18.80
2019-04-25T13:56:53.893Z,18.20
2019-04-25T13:59:24.421Z,17.60
2019-04-25T14:01:57.727Z,17.10
2019-04-25T14:04:28.244Z,17.60
2019-04-25T14:06:58.763Z,20.40
2019-04-25T14:09:29.220Z,21.60
2019-04-25T14:11:59.904Z,19.50
2019-04-25T14:14:30.496Z,18.90
2019-04-25T14:17:08.673Z,20.10
2019-04-25T14:19:54.200Z,19.60
2019-04-25T14:22:25.220Z,19.50
2019-04-25T14:24:55.816Z,22.10
2019-04-25T14:27:26.560Z,23.00
2019-04-25T14:29:57.066Z,20.40
2019-04-25T14:32:28.898Z,18.60
2019-04-25T14:34:59.774Z,18.20
2019-04-25T14:37:33.568Z,17.60
2019-04-25T14:40:03.951Z,18.00
2019-04-25T14:42:34.549Z,19.20
2019-04-25T14:45:05.426Z,19.00
2019-04-25T14:47:36.087Z,19.00
2019-04-25T14:50:07.132Z,19.70
2019-04-25T14:52:38.498Z,20.50
2019-04-25T14:55:27.377Z,20.40
2019-04-25T14:57:59.438Z,19.30
2019-04-25T15:00:40.054Z,20.00
2019-04-25T15:03:10.631Z,20.50
2019-04-25T15:05:43.352Z,20.90
2019-04-25T15:08:13.400Z,21.80
2019-04-25T15:10:51.750Z,22.50
2019-04-25T15:13:22.170Z,22.40
2019-04-25T15:15:52.586Z,22.80
2019-04-25T15:18:23.529Z,22.50
2019-04-25T15:20:54.373Z,22.30
2019-04-25T15:23:25.444Z,22.50
2019-04-25T15:25:55.941Z,23.60
2019-04-25T15:28:37.637Z,23.40
2019-04-25T15:31:08.254Z,21.90
2019-04-25T15:33:38.838Z,20.40
2019-04-25T15:36:24.574Z,18.70
2019-04-25T15:39:12.725Z,17.80
2019-04-25T15:41:49.099Z,18.00
2019-04-25T15:44:47.268Z,18.30
2019-04-25T15:47:20.563Z,18.60
2019-04-25T15:49:51.262Z,18.30
2019-04-25T15:52:21.752Z,19.00
2019-04-25T15:54:53.481Z,20.60
2019-04-25T15:57:24.013Z,21.30
2019-04-25T15:59:54.440Z,21.30
2019-04-25T16:02:25.058Z,20.30
2019-04-25T16:04:55.496Z,19.80
2019-04-25T16:07:27.109Z,19.40
2019-04-25T16:09:57.805Z,20.00
2019-04-25T16:12:28.728Z,20.20
2019-04-25T16:14:59.252Z,20.00
2019-04-25T16:17:30.627Z,19.60
2019-04-25T16:20:01.235Z,19.30
2019-04-25T16:22:32.182Z,17.70
2019-04-25T16:25:02.811Z,16.40
2019-04-25T16:27:33.339Z,15.90
2019-04-25T16:30:05.247Z,15.50
2019-04-25T16:32:36.645Z,15.40
2019-04-25T16:35:08.180Z,15.30
2019-04-25T16:37:38.614Z,15.30
2019-04-25T16:40:11.196Z,15.50
2019-04-25T16:42:41.800Z,15.50
2019-04-25T16:45:12.734Z,15.30
2019-04-25T16:47:43.397Z,15.30
2019-04-25T16:50:16.494Z,15.20
2019-04-25T16:52:46.923Z,15.10
2019-04-25T16:55:17.450Z,14.70
2019-04-25T16:57:47.876Z,14.50
2019-04-25T17:00:56.397Z,14.20
2019-04-25T17:03:29.919Z,14.00
2019-04-25T17:06:00.817Z,13.80
2019-04-25T17:08:31.365Z,13.60
2019-04-25T17:11:02.868Z,13.70
2019-04-25T17:13:35.873Z,13.80
2019-04-25T17:16:37.770Z,13.80
2019-04-25T17:19:13.930Z,13.60
2019-04-25T17:21:44.461Z,13.60
2019-04-25T17:24:14.887Z,13.60
2019-04-25T17:26:45.302Z,13.60
2019-04-25T17:29:19.431Z,13.50
2019-04-25T17:32:04.193Z,13.30
2019-04-25T17:35:05.967Z,13.30
2019-04-25T17:37:40.786Z,13.20
2019-04-25T17:40:14.899Z,13.20
2019-04-25T17:42:45.375Z,13.10
2019-04-25T17:45:20.564Z,13.00
2019-04-25T17:47:54.872Z,13.00
2019-04-25T17:50:24.192Z,12.90
2019-04-25T17:52:54.598Z,12.90
2019-04-25T17:55:25.035Z,12.90
2019-04-25T17:57:55.474Z,12.80
2019-04-25T18:00:31.118Z,12.80
2019-04-25T18:03:01.644Z,12.70
2019-04-25T18:05:32.171Z,12.60
2019-04-25T18:08:02.597Z,12.60
2019-04-25T18:10:34.154Z,12.50
2019-04-25T18:13:05.642Z,12.50
2019-04-25T18:15:55.282Z,12.50
2019-04-25T18:18:43.437Z,12.40
2019-04-25T18:21:14.054Z,12.30
2019-04-25T18:24:09.159Z,12.30
2019-04-25T18:26:57.097Z,12.30
2019-04-25T18:29:27.630Z,12.40
2019-04-25T18:31:58.266Z,12.40
2019-04-25T18:34:40.974Z,12.30
2019-04-25T18:37:37.203Z,12.30
2019-04-25T18:40:36.594Z,12.30
2019-04-25T18:43:23.934Z,12.20
2019-04-25T18:46:02.062Z,12.10
2019-04-25T18:48:33.685Z,11.90
2019-04-25T18:51:04.129Z,11.80
2019-04-25T18:53:52.371Z,11.70
2019-04-25T18:56:28.474Z,11.60
2019-04-25T18:59:16.571Z,11.50
2019-04-25T19:02:24.579Z,11.40
2019-04-25T19:05:13.977Z,11.30
2019-04-25T19:07:45.323Z,11.30
2019-04-25T19:10:16.844Z,11.20
2019-04-25T19:12:47.390Z,11.10
2019-04-25T19:15:18.422Z,11.00
2019-04-25T19:17:49.760Z,11.00
2019-04-25T19:20:20.399Z,11.00
2019-04-25T19:22:51.007Z,11.00
2019-04-25T19:25:21.466Z,11.00
2019-04-25T19:27:51.892Z,11.00
2019-04-25T19:30:23.443Z,11.00
2019-04-25T19:32:54.691Z,11.00
2019-04-25T19:35:25.330Z,10.90
2019-04-25T19:37:58.410Z,11.00
2019-04-25T19:40:35.342Z,10.90
2019-04-25T19:43:33.780Z,10.90
2019-04-25T19:46:04.483Z,10.80
2019-04-25T19:48:34.940Z,10.80
2019-04-25T19:51:05.668Z,10.70
2019-04-25T19:53:36.095Z,10.60
2019-04-25T19:56:06.527Z,10.60
2019-04-25T19:58:37.154Z,10.50
2019-04-25T20:01:08.605Z,10.40
2019-04-25T20:03:56.793Z,10.40
2019-04-25T20:06:45.413Z,10.30
2019-04-25T20:09:42.308Z,10.20
2019-04-25T20:12:13.289Z,10.10
2019-04-25T20:14:44.564Z,10.10
2019-04-25T20:17:16.111Z,10.00
2019-04-25T20:19:47.628Z,10.00
2019-04-25T20:22:18.793Z,9.90
2019-04-25T20:24:50.337Z,9.80
2019-04-25T20:27:22.259Z,9.80
2019-04-25T20:29:52.834Z,9.70
2019-04-25T20:32:23.382Z,9.70
2019-04-25T20:34:53.934Z,9.60
2019-04-25T20:37:24.428Z,9.60
2019-04-25T20:39:54.851Z,9.50
2019-04-25T20:42:25.379Z,9.50
2019-04-25T20:44:56.076Z,9.50
2019-04-25T20:47:26.690Z,9.40
2019-04-25T20:49:57.776Z,9.30
2019-04-25T20:52:30.031Z,9.20
2019-04-25T20:55:00.484Z,9.10
2019-04-25T20:57:30.909Z,9.00
2019-04-25T21:00:02.450Z,9.00
2019-04-25T21:02:32.887Z,9.00
2019-04-25T21:05:03.418Z,8.90
2019-04-25T21:07:33.835Z,8.90
2019-04-25T21:10:04.278Z,8.80
2019-04-25T21:12:34.790Z,8.80
2019-04-25T21:15:27.263Z,8.80
2019-04-25T21:18:16.718Z,8.70
2019-04-25T21:20:47.491Z,8.70
2019-04-25T21:23:17.970Z,8.70
2019-04-25T21:25:48.404Z,8.70
2019-04-25T21:28:18.836Z,8.70
2019-04-25T21:30:58.924Z,8.70
2019-04-25T21:33:46.579Z,8.60
2019-04-25T21:36:22.875Z,8.60
2019-04-25T21:38:53.901Z,8.50
2019-04-25T21:41:55.667Z,8.50
2019-04-25T21:44:36.090Z,8.50
2019-04-25T21:47:06.658Z,8.40
2019-04-25T21:49:37.724Z,8.40
2019-04-25T21:52:08.172Z,8.30
2019-04-25T21:54:38.891Z,8.30
2019-04-25T21:57:10.630Z,8.30
2019-04-25T21:59:41.478Z,8.40
2019-04-25T22:02:13.100Z,8.40
2019-04-25T22:04:43.774Z,8.40
2019-04-25T22:07:14.914Z,8.30
2019-04-25T22:09:46.666Z,8.30
2019-04-25T22:12:17.799Z,8.30
2019-04-25T22:14:48.237Z,8.20
2019-04-25T22:17:18.664Z,8.20
2019-04-25T22:19:49.398Z,8.20
2019-04-25T22:22:22.161Z,8.20
2019-04-25T22:24:52.402Z,8.20
2019-04-25T22:27:28.666Z,8.20
2019-04-25T22:29:59.938Z,8.20
2019-04-25T22:32:49.799Z,8.10
2019-04-25T22:35:43.774Z,8.00
2019-04-25T22:38:14.559Z,8.10
2019-04-25T22:40:45.041Z,8.00
2019-04-25T22:43:16.976Z,8.00
2019-04-25T22:45:47.837Z,7.90
2019-04-25T22:48:26.257Z,7.90
2019-04-25T22:50:57.257Z,7.80
2019-04-25T22:53:27.772Z,7.80
2019-04-25T22:55:58.352Z,7.80
2019-04-25T22:58:28.790Z,7.80
2019-04-25T23:01:00.717Z,7.70
2019-04-25T23:03:38.542Z,7.70
2019-04-25T23:06:09.649Z,7.70
2019-04-25T23:08:40.102Z,7.70
2019-04-25T23:11:10.628Z,7.70
2019-04-25T23:13:41.059Z,7.60
2019-04-25T23:16:11.909Z,7.70
2019-04-25T23:18:42.322Z,7.60
2019-04-25T23:21:12.750Z,7.60
2019-04-25T23:23:43.187Z,7.60
2019-04-25T23:26:44.743Z,7.60
2019-04-25T23:29:17.014Z,7.60
2019-04-25T23:31:49.078Z,7.60
2019-04-25T23:34:19.855Z,7.50
2019-04-25T23:36:50.387Z,7.60
2019-04-25T23:39:21.088Z,7.70
2019-04-25T23:41:51.503Z,7.80
2019-04-25T23:44:21.929Z,7.90
2019-04-25T23:46:52.770Z,8.00
2019-04-25T23:49:24.390Z,8.00
2019-04-25T23:51:55.136Z,8.20
2019-04-25T23:54:25.570Z,8.20
2019-04-25T23:56:56.478Z,8.20
2019-04-25T23:59:26.951Z,8.20
